Waikoloa Village, HI

3:06 AM HST on July 04, 2015 (GMT -1000)
Waikoloa Village | | Change Station
CLOSE
Current Station
Personal Weather Station
Location: Waikoloa, HI
Elevation: 920 ft
Nearby Weather Stations

Elev 920 ft 19.93 °N, 155.79 °W | Updated 6 minutes ago

Overcast
Overcast
--
Feels Like --
N
-
Wind Variable Wind from North
Gusts 0.0 mph

Today
High -- | Low -- °F
--% Chance of Precip.
Yesterday
High -- | Low -- °F
Precip. -- in
5:48 AM 7:06 PM
Waning Gibbous, 92% visible
Pressure 29.90 in
Visibility 10.0 miles
Clouds Few 2700 ft
Mostly Cloudy 3300 ft
Overcast 4200 ft
Dew Point Not available.
Humidity Not available.
Rainfall 0.00 in
Snow Depth Not available.
UV 0 out of 12
Pollen Not available.
Air Quality Not available.
Flu Activity Not available.
METAR PHKO 041253Z AUTO 02004KT 10SM FEW027 BKN033 OVC042 26/20 A2989 RMK AO2 RAB12E21 SLP123 P0000 T02610200 TSNO

More Conditions Fewer Conditions

Pressure 29.90 in
Visibility 10.0 miles
Clouds Few 2700 ft
Mostly Cloudy 3300 ft
Overcast 4200 ft
Dew Point Not available.
Humidity Not available.
Rainfall 0.00 in
Snow Depth Not available.
UV 0 out of 12
Pollen Not available.
Air Quality Not available.
Flu Activity Not available.
METAR PHKO 041253Z AUTO 02004KT 10SM FEW027 BKN033 OVC042 26/20 A2989 RMK AO2 RAB12E21 SLP123 P0000 T02610200 TSNO

More Conditions Fewer Conditions

10-Day Weather Forecast

×

Almanac

Astronomy

Jul. 04, 2015 Rise Set
Actual Time
Civil Twilight
Nautical Twilight
Astronomical Twilight
Moon
Length of Visible Light
Length of Day
Tomorrow will be .
, % of the Moon is Illuminated

Today's Extremes

State Highs State Lows

Community

WunderPhotos

Upload Photos

1,834,951 photos uploaded!

WunderBlogs® & News

Nearby

Air Quality

  Air Quality AQ Index Pollutant
Not available.

Snow Depth

Station Depth Elevation

Earthquake Activity

City Distance Mag. Time & Date
Minimum magnitude displayed is 2.5.

Coastal Water Temperatures

Place Temperature

Stations

Nearby Weather Stations

Station Location Temp. Windchill Dew Point Humidity Wind Precip. Elev Updated Type